Time;durP1;ratioP1;P1;durP2;ratioP2;P2;SDS_P1;SDS_P2;PMS_P1;PMS_P2;Temp;Humidity;BMP_temperature;BMP_pressure;BME280_temperature;BME280_humidity;BME280_pressure;Samples;Min_cycle;Max_cycle;Signal;HPM_P1;HPM_P2
2022/09/28 00:14:02;2247266.00;7.49;4145.02;0.00;0.00;0.62;;;;;15.60;1.00;;;;;;2293441;55;3724;-88
2022/09/28 00:16:31;1099343.00;3.66;1909.25;0.00;0.00;0.62;;;;;15.50;1.00;;;;;;2309130;56;3718;-89
2022/09/28 00:21:34;1941491.00;6.47;3504.87;0.00;0.00;0.62;;;;;15.20;1.00;;;;;;2293114;40;3520;-89
2022/09/28 00:29:05;2593505.00;8.65;4922.74;36038.00;0.12;63.03;;;;;14.80;1.00;;;;;;2283000;55;3678;-88
2022/09/28 00:44:38;1191970.00;3.97;2075.71;0.00;0.00;0.62;;;;;15.60;1.00;;;;;;2279007;61;1340;-88
2022/09/28 00:49:40;1332558.00;4.44;2331.82;35504.00;0.12;62.11;;;;;15.90;1.00;;;;;;2279038;61;1330;-89
2022/09/28 00:52:13;961092.00;3.20;1663.68;0.00;0.00;0.62;;;;;16.00;1.00;;;;;;2276089;61;1348;-89
2022/09/28 00:54:46;1171581.00;3.91;2038.92;0.00;0.00;0.62;;;;;15.70;1.00;;;;;;2294877;55;3802;-86
2022/09/28 00:59:44;1607160.00;5.36;2846.43;13142.00;0.04;23.39;;;;;15.20;1.00;;;;;;2277655;61;1424;-90
2022/09/28 01:02:10;946114.00;3.15;1637.26;0.00;0.00;0.62;;;;;15.30;1.00;;;;;;2276272;60;1284;-89
2022/09/28 01:14:35;2051145.00;6.84;3729.88;148.00;0.00;0.88;;;;;15.00;1.00;;;;;;2277778;61;1453;-87
2022/09/28 01:17:11;973158.00;3.24;1684.99;0.00;0.00;0.62;;;;;15.00;1.00;;;;;;2276294;61;1988;-87
2022/09/28 01:20:12;771413.00;2.57;1331.31;0.00;0.00;0.62;;;;;15.10;1.00;;;;;;2321750;39;3604;-88
2022/09/28 01:27:48;2003915.00;6.68;3632.37;78019.00;0.26;135.62;;;;;15.70;1.00;;;;;;2312674;55;3636;-87
2022/09/28 01:52:50;2812954.00;9.38;5449.13;84366.00;0.28;146.58;;;;;15.80;1.00;;;;;;2322664;55;3666;-88
2022/09/28 01:57:51;2519587.00;8.40;4751.52;146823.00;0.49;254.33;;;;;15.60;1.00;;;;;;2292581;56;3534;-86
2022/09/28 02:05:28;1980916.00;6.60;3585.21;71364.00;0.24;124.12;;;;;15.60;1.00;;;;;;2277585;61;1295;-89
2022/09/28 03:13:19;1599877.00;5.33;2832.50;0.00;0.00;0.62;;;;;15.60;1.00;;;;;;2288022;55;3641;-90
2022/09/28 03:18:19;1969521.00;6.57;3561.93;0.00;0.00;0.62;;;;;15.60;1.00;;;;;;2282496;60;1312;-88
2022/09/28 03:20:48;1178924.00;3.93;2052.16;0.00;0.00;0.62;;;;;15.80;1.00;;;;;;2283112;55;3811;-88
2022/09/28 03:25:45;1570569.00;5.24;2776.62;0.00;0.00;0.62;;;;;15.20;1.00;;;;;;2278669;61;1398;-90
2022/09/28 03:28:11;877481.00;2.92;1516.60;0.00;0.00;0.62;;;;;15.20;1.00;;;;;;2276669;61;1025;-90
2022/09/28 03:30:40;805373.00;2.68;1390.50;0.00;0.00;0.62;;;;;15.30;1.00;;;;;;2309778;40;3633;-89
2022/09/28 03:33:07;706636.00;2.36;1218.75;0.00;0.00;0.62;;;;;15.50;1.00;;;;;;2288840;60;1413;-89
2022/09/28 03:35:34;787108.00;2.62;1358.65;0.00;0.00;0.62;;;;;15.70;1.00;;;;;;2289058;60;986;-89
2022/09/28 03:38:01;740166.00;2.47;1276.96;0.00;0.00;0.62;;;;;15.70;1.00;;;;;;2289084;60;935;-89
2022/09/28 03:43:01;1641445.00;5.47;2912.21;0.00;0.00;0.62;;;;;16.30;1.00;;;;;;2278369;60;1454;-87
2022/09/28 03:45:28;699901.00;2.33;1207.07;0.00;0.00;0.62;;;;;16.50;1.00;;;;;;2276932;60;900;-88
2022/09/28 03:53:02;1081542.00;3.61;1877.45;0.00;0.00;0.62;;;;;16.80;1.00;;;;;;2282597;60;1307;-88
2022/09/28 03:55:29;701954.00;2.34;1210.63;0.00;0.00;0.62;;;;;16.90;1.00;;;;;;2280962;60;1030;-87
2022/09/28 03:57:56;687272.00;2.29;1185.17;0.00;0.00;0.62;;;;;16.80;1.00;;;;;;2281045;60;2017;-88
2022/09/28 04:00:23;766966.00;2.56;1323.57;0.00;0.00;0.62;;;;;16.90;1.00;;;;;;2280967;60;1011;-88
2022/09/28 04:02:49;808639.00;2.70;1396.19;0.00;0.00;0.62;;;;;16.80;1.00;;;;;;2281006;60;1357;-87
2022/09/28 04:05:16;658105.00;2.19;1134.66;0.00;0.00;0.62;;;;;16.80;1.00;;;;;;2280915;60;1477;-89
2022/09/28 04:07:43;764647.00;2.55;1319.54;0.00;0.00;0.62;;;;;16.80;1.00;;;;;;2280961;60;1597;-87
2022/09/28 04:10:11;763809.00;2.55;1318.08;0.00;0.00;0.62;;;;;16.60;1.00;;;;;;2280905;60;1075;-89
2022/09/28 04:12:38;614106.00;2.05;1058.58;0.00;0.00;0.62;;;;;16.70;1.00;;;;;;2280874;60;1367;-90
2022/09/28 04:15:06;844142.00;2.81;1458.22;14694.00;0.05;26.08;;;;;16.50;1.00;;;;;;2280973;60;1718;-89
2022/09/28 04:17:33;907739.00;3.03;1569.72;0.00;0.00;0.62;;;;;16.50;1.00;;;;;;2292077;39;3781;-87
2022/09/28 04:20:01;755837.00;2.52;1304.21;0.00;0.00;0.62;;;;;16.50;1.00;;;;;;2285192;60;1021;-88
2022/09/28 04:22:29;642008.00;2.14;1106.81;0.00;0.00;0.62;;;;;16.60;1.00;;;;;;2285040;60;1633;-88
2022/09/28 04:24:55;679120.00;2.26;1171.05;0.00;0.00;0.62;;;;;16.60;1.00;;;;;;2285050;60;1226;-88
2022/09/28 04:40:11;1884541.00;6.28;3389.88;0.00;0.00;0.62;;;;;16.40;1.00;;;;;;2278583;61;1170;-90
2022/09/28 04:42:39;869378.00;2.90;1502.40;0.00;0.00;0.62;;;;;16.30;1.00;;;;;;2276732;61;1291;-90
2022/09/28 04:45:07;1090499.00;3.63;1893.44;0.00;0.00;0.62;;;;;16.30;1.00;;;;;;2276751;61;912;-87
2022/09/28 04:47:34;692096.00;2.31;1193.53;0.00;0.00;0.62;;;;;16.50;1.00;;;;;;2290414;39;3606;-89
2022/09/28 04:50:01;986644.00;3.29;1708.83;18105.00;0.06;31.99;;;;;16.40;1.00;;;;;;2284854;60;914;-89
2022/09/28 04:55:01;2113181.00;7.04;3859.37;0.00;0.00;0.62;;;;;16.40;1.00;;;;;;2278568;61;1345;-88
2022/09/28 05:10:00;2653825.00;8.85;5064.68;100177.00;0.33;173.88;;;;;16.00;1.00;;;;;;2325368;56;3610;-88
2022/09/28 05:37:46;1861501.00;6.21;3343.71;133263.00;0.44;230.96;;;;;17.00;1.00;;;;;;2279290;61;1930;-90
2022/09/28 05:47:55;2407442.00;8.02;4497.26;159539.00;0.53;276.25;;;;;17.10;1.00;;;;;;2279055;61;984;-90
2022/09/28 05:50:22;805803.00;2.69;1391.25;0.00;0.00;0.62;;;;;17.20;1.00;;;;;;2277330;61;448;-90
2022/09/28 05:52:59;636952.00;2.12;1098.07;46756.00;0.16;81.58;;;;;16.90;1.00;;;;;;2277309;61;1192;-90
2022/09/28 06:03:14;1863949.00;6.21;3348.61;0.00;0.00;0.62;;;;;16.70;1.00;;;;;;2299867;55;3727;31
2022/09/28 06:08:15;1421256.00;4.74;2495.81;0.00;0.00;0.62;;;;;15.70;1.00;;;;;;2317149;55;3667;-88
2022/09/28 06:18:16;1342782.00;4.48;2350.62;0.00;0.00;0.62;;;;;15.50;1.00;;;;;;2279147;61;1961;-89
2022/09/28 07:49:10;2232660.00;7.44;4113.51;33169.00;0.11;58.07;;;;;17.10;1.00;;;;;;2522341;55;3572;31
2022/09/28 08:16:56;2388057.00;7.96;4453.97;88734.00;0.30;154.12;;;;;17.30;1.00;;;;;;2279177;61;1942;-92
2022/09/28 10:51:06;2507126.00;8.36;4722.94;167855.00;0.56;290.57;;;;;19.20;1.00;;;;;;2283427;61;1083;-88
2022/09/28 10:56:22;1764080.00;5.88;3150.62;44435.00;0.15;77.56;;;;;19.10;1.00;;;;;;2283558;61;1324;-90
2022/09/28 11:01:27;2150933.00;7.17;3938.99;0.00;0.00;0.62;;;;;19.00;1.00;;;;;;2287525;61;1298;-91
2022/09/28 11:51:36;1528526.00;5.10;2696.91;29940.00;0.10;52.48;;;;;19.60;1.00;;;;;;2328791;56;3602;-87
2022/09/28 11:54:13;647042.00;2.16;1115.52;0.00;0.00;0.62;;;;;19.70;1.00;;;;;;2288280;60;1444;-89
2022/09/28 11:56:43;823433.00;2.74;1422.02;91008.00;0.30;158.05;;;;;19.40;1.00;;;;;;2272131;39;1135464;-86
2022/09/28 11:59:17;1336563.00;4.46;2339.18;61614.00;0.21;107.27;;;;;19.30;1.00;;;;;;2292531;60;1414;-88
2022/09/28 12:04:20;1717284.00;5.72;3059.06;0.00;0.00;0.62;;;;;18.80;1.00;;;;;;2289994;60;1402;-88
2022/09/28 12:06:55;938753.00;3.13;1624.29;0.00;0.00;0.62;;;;;18.90;1.00;;;;;;2288199;60;1042;-87
2022/09/28 12:09:32;829318.00;2.76;1432.30;0.00;0.00;0.62;;;;;19.10;1.00;;;;;;2288611;60;1027;-87
2022/09/28 12:12:04;978367.00;3.26;1694.19;20487.00;0.07;36.11;;;;;19.30;1.00;;;;;;2288368;60;883;-87
2022/09/28 12:14:35;1115817.00;3.72;1938.73;0.00;0.00;0.62;;;;;19.20;1.00;;;;;;2288463;60;994;-88
2022/09/28 12:17:08;779642.00;2.60;1345.64;37713.00;0.13;65.93;;;;;19.20;1.00;;;;;;2288120;60;1931;-89
2022/09/28 12:19:42;570822.00;1.90;983.86;0.00;0.00;0.62;;;;;19.40;1.00;;;;;;2288595;60;1595;-85
2022/09/28 12:24:46;2045110.00;6.82;3717.36;0.00;0.00;0.62;;;;;19.30;1.00;;;;;;2286279;60;1180;-86
2022/09/28 12:27:21;645159.00;2.15;1112.26;80161.00;0.27;139.32;;;;;19.40;1.00;;;;;;2284699;60;963;-88
2022/09/28 12:29:55;1017260.00;3.39;1763.07;153909.00;0.51;266.54;;;;;19.40;1.00;;;;;;2284755;60;1009;-86
2022/09/28 12:32:31;427740.00;1.43;737.50;0.00;0.00;0.62;;;;;19.60;1.00;;;;;;2284642;60;1561;-85
2022/09/28 12:34:58;712899.00;2.38;1229.61;58964.00;0.20;102.69;;;;;19.30;1.00;;;;;;2284680;60;1539;-86
2022/09/28 12:37:39;698334.00;2.33;1204.35;49857.00;0.17;86.94;;;;;19.00;1.00;;;;;;2284553;60;2001;-85
2022/09/28 12:40:33;588046.00;1.96;1013.58;87603.00;0.29;152.17;;;;;19.10;1.00;;;;;;2284704;60;1017;-85
2022/09/28 12:43:27;750294.00;2.50;1294.57;125104.00;0.42;216.89;;;;;19.30;1.00;;;;;;2284661;60;1457;-86
2022/09/28 12:46:22;724088.00;2.41;1249.04;0.00;0.00;0.62;;;;;19.40;1.00;;;;;;2283580;60;1060;-86
2022/09/28 12:49:05;636049.00;2.12;1096.51;57230.00;0.19;99.69;;;;;19.40;1.00;;;;;;2284679;60;1458;-85
2022/09/28 12:51:47;976293.00;3.25;1690.53;34801.00;0.12;60.89;;;;;19.20;1.00;;;;;;2284570;60;1661;-86
2022/09/28 12:54:38;860416.00;2.87;1486.70;54849.00;0.18;95.57;;;;;19.10;1.00;;;;;;2284617;60;1360;-84
2022/09/28 12:57:36;612738.00;2.04;1056.22;63112.00;0.21;109.86;;;;;19.50;1.00;;;;;;2284506;60;1919;-85
2022/09/28 13:00:07;718760.00;2.40;1239.79;42885.00;0.14;74.88;;;;;19.70;1.00;;;;;;2284556;60;1489;-87
2022/09/28 13:03:17;676478.00;2.25;1166.47;0.00;0.00;0.62;;;;;19.80;1.00;;;;;;2284685;60;1344;-83
2022/09/28 13:06:22;847163.00;2.82;1463.50;0.00;0.00;0.62;;;;;19.80;1.00;;;;;;2283565;60;1209;-86
2022/09/28 13:09:13;1195792.00;3.99;2082.61;66171.00;0.22;115.14;;;;;19.90;1.00;;;;;;2284554;60;1570;-84
2022/09/28 13:11:53;791766.00;2.64;1366.77;72903.00;0.24;126.78;;;;;19.90;1.00;;;;;;2284599;60;1493;-85
2022/09/28 13:14:53;739210.00;2.46;1275.30;0.00;0.00;0.62;;;;;19.90;1.00;;;;;;2284498;60;1554;-85
2022/09/28 13:17:40;797849.00;2.66;1377.37;41813.00;0.14;73.03;;;;;19.80;1.00;;;;;;2284514;60;1947;-85
2022/09/28 13:20:29;852406.00;2.84;1472.68;114816.00;0.38;199.14;;;;;19.80;1.00;;;;;;2284536;60;1692;-86
2022/09/28 13:23:08;550487.00;1.83;948.80;54879.00;0.18;95.62;;;;;19.60;1.00;;;;;;2286894;60;1377;-85
2022/09/28 13:25:42;1101731.00;3.67;1913.52;2787.00;0.01;5.45;;;;;19.70;1.00;;;;;;2292804;60;1034;-86
2022/09/28 13:28:17;124886376.00;416.29;78912928.00;47468.00;0.16;82.81;;;;;19.50;1.00;;;;;;2292810;60;1030;-84
2022/09/28 13:30:53;777824.00;2.59;1342.48;71460.00;0.24;124.28;;;;;19.50;1.00;;;;;;2292635;60;1512;-85
2022/09/28 13:33:27;953268.00;3.18;1649.87;38210.00;0.13;66.79;;;;;19.50;1.00;;;;;;2292445;60;1451;-86
2022/09/28 13:36:01;816674.00;2.72;1410.22;84380.00;0.28;146.60;;;;;19.70;1.00;;;;;;2292550;60;1555;-86
2022/09/28 13:38:30;533578.00;1.78;919.66;0.00;0.00;0.62;;;;;19.70;1.00;;;;;;2292664;60;1989;-86
2022/09/28 13:41:22;826354.00;2.75;1427.12;61235.00;0.20;106.61;;;;;19.80;1.00;;;;;;2292575;60;1409;-86
2022/09/28 13:44:21;874227.00;2.91;1510.90;0.00;0.00;0.62;;;;;19.90;1.00;;;;;;2292598;60;1445;-86
2022/09/28 13:47:00;624317.00;2.08;1076.23;0.00;0.00;0.62;;;;;19.80;1.00;;;;;;2292632;60;957;-86
2022/09/28 13:49:41;656808.00;2.19;1132.42;0.00;0.00;0.62;;;;;19.90;1.00;;;;;;2292687;60;1437;-86
2022/09/28 13:52:16;557373.00;1.86;960.67;39017.00;0.13;68.19;;;;;20.00;1.00;;;;;;2292660;60;1303;-84
2022/09/28 13:55:02;710725.00;2.37;1225.84;11143.00;0.04;19.93;;;;;20.20;1.00;;;;;;2292625;60;1583;-84
2022/09/28 13:57:37;974876.00;3.25;1688.02;89423.00;0.30;155.31;;;;;19.70;1.00;;;;;;2292578;60;1997;-85
2022/09/28 14:00:15;661190.00;2.20;1140.00;0.00;0.00;0.62;;;;;19.30;1.00;;;;;;2292566;60;951;-86
2022/09/28 14:02:48;710991.00;2.37;1226.30;100855.00;0.34;175.05;;;;;19.00;1.00;;;;;;2292547;60;1544;-86
2022/09/28 14:05:48;617281.00;2.06;1064.07;0.00;0.00;0.62;;;;;19.10;1.00;;;;;;2292678;60;1002;-86
2022/09/28 14:08:33;689616.00;2.30;1189.24;66280.00;0.22;115.33;;;;;18.90;1.00;;;;;;2292547;60;1563;-85
2022/09/28 14:11:50;666905.00;2.22;1149.89;54938.00;0.18;95.73;;;;;18.70;1.00;;;;;;2292549;60;1504;-86
2022/09/28 14:14:45;782378.00;2.61;1350.41;24202.00;0.08;42.55;;;;;18.50;1.00;;;;;;2292494;60;1562;-84
2022/09/28 14:17:48;568812.00;1.90;980.40;31880.00;0.11;55.84;;;;;18.50;1.00;;;;;;2292572;60;1976;-85
2022/09/28 14:20:25;672468.00;2.24;1159.53;0.00;0.00;0.62;;;;;18.70;1.00;;;;;;2292497;60;1293;-85
2022/09/28 14:23:06;739738.00;2.47;1276.22;20028.00;0.07;35.32;;;;;18.90;1.00;;;;;;2292436;60;1417;-85
2022/09/28 14:25:39;665454.00;2.22;1147.38;31063.00;0.10;54.42;;;;;19.00;1.00;;;;;;2292544;60;974;-85
2022/09/28 14:28:34;639987.00;2.13;1103.32;0.00;0.00;0.62;;;;;19.00;1.00;;;;;;2292500;60;1534;-85
2022/09/28 14:31:15;534929.00;1.78;921.98;19951.00;0.07;35.19;;;;;19.10;1.00;;;;;;2292619;60;979;-86
2022/09/28 14:33:57;457335.00;1.52;788.40;0.00;0.00;0.62;;;;;19.20;1.00;;;;;;2292545;60;1371;-85
2022/09/28 14:42:18;386999.00;1.29;667.46;0.00;0.00;0.62;;;;;19.50;1.00;;;;;;2292580;60;1409;-85
2022/09/28 14:45:20;452270.00;1.51;779.69;0.00;0.00;0.62;;;;;19.50;1.00;;;;;;2292512;60;1008;-86
2022/09/28 14:48:19;691016.00;2.30;1191.66;8946.00;0.03;16.12;;;;;19.50;1.00;;;;;;2292395;60;1101;-86
2022/09/28 14:50:47;654554.00;2.18;1128.52;64326.00;0.21;111.95;;;;;19.40;1.00;;;;;;2292513;60;1065;-86
2022/09/28 14:53:20;830993.00;2.77;1435.23;46616.00;0.16;81.33;;;;;19.30;1.00;;;;;;2292516;60;1284;-86
2022/09/28 14:55:51;866988.00;2.89;1498.21;50151.00;0.17;87.45;;;;;19.10;1.00;;;;;;2292549;60;997;-85
2022/09/28 14:58:21;602126.00;2.01;1037.89;0.00;0.00;0.62;;;;;19.40;1.00;;;;;;2292383;60;2009;-85
2022/09/28 15:00:56;497672.00;1.66;857.82;0.00;0.00;0.62;;;;;19.30;1.00;;;;;;2292505;60;1029;-86
2022/09/28 15:03:26;807701.00;2.69;1394.56;79538.00;0.27;138.24;;;;;19.50;1.00;;;;;;2292362;60;1597;-86
2022/09/28 15:05:54;612678.00;2.04;1056.12;0.00;0.00;0.62;;;;;19.70;1.00;;;;;;2292394;60;1432;-85
2022/09/28 15:08:22;453661.00;1.51;782.08;0.00;0.00;0.62;;;;;19.70;1.00;;;;;;2292402;60;1644;-86
2022/09/28 15:10:51;629116.00;2.10;1084.52;0.00;0.00;0.62;;;;;19.80;1.00;;;;;;2292422;60;1563;-85
2022/09/28 15:13:23;676563.00;2.26;1166.62;0.00;0.00;0.62;;;;;19.80;1.00;;;;;;2293092;60;1378;-85
2022/09/28 15:16:00;414237.00;1.38;714.28;0.00;0.00;0.62;;;;;19.90;1.00;;;;;;2293163;60;1050;-86
2022/09/28 15:19:05;704601.00;2.35;1215.22;0.00;0.00;0.62;;;;;19.70;1.00;;;;;;2293056;60;2005;-85
2022/09/28 15:21:38;906887.00;3.02;1568.22;78629.00;0.26;136.67;;;;;19.40;1.00;;;;;;2293022;60;2205;-85
2022/09/28 15:24:32;660611.00;2.20;1139.00;19142.00;0.06;33.78;;;;;19.50;1.00;;;;;;2292949;60;1568;-85
2022/09/28 15:27:04;807295.00;2.69;1393.85;162343.00;0.54;281.08;;;;;19.50;1.00;;;;;;2293108;60;1120;-85
2022/09/28 15:29:34;788374.00;2.63;1360.86;61087.00;0.20;106.36;;;;;19.40;1.00;;;;;;2293137;60;974;-85
2022/09/28 15:32:04;907553.00;3.03;1569.39;64822.00;0.22;112.81;;;;;19.40;1.00;;;;;;2293094;60;1112;-85
2022/09/28 15:34:51;747240.00;2.49;1289.26;108652.00;0.36;188.50;;;;;19.00;1.00;;;;;;2293030;60;1032;-86
2022/09/28 15:37:21;662862.00;2.21;1142.89;55448.00;0.18;96.61;;;;;18.80;1.00;;;;;;2293069;60;1078;-84
2022/09/28 15:39:51;914636.00;3.05;1581.84;66270.00;0.22;115.31;;;;;18.50;1.00;;;;;;2292988;60;2008;-85
2022/09/28 15:42:22;968729.00;3.23;1677.16;103041.00;0.34;178.82;;;;;18.60;1.00;;;;;;2292924;60;1555;-86
2022/09/28 15:45:29;1097031.00;3.66;1905.11;61219.00;0.20;106.58;;;;;18.70;1.00;;;;;;2293105;60;1167;-85
2022/09/28 15:48:17;589287.00;1.96;1015.73;0.00;0.00;0.62;;;;;18.70;1.00;;;;;;2293026;60;1044;-85
2022/09/28 15:51:01;330013.00;1.10;569.51;0.00;0.00;0.62;;;;;18.70;1.00;;;;;;2293088;60;1069;-86
2022/09/28 15:53:30;377588.00;1.26;651.28;0.00;0.00;0.62;;;;;18.20;1.00;;;;;;2293004;60;1460;-85
2022/09/28 15:56:08;702248.00;2.34;1211.14;0.00;0.00;0.62;;;;;17.90;1.00;;;;;;2292941;60;1582;-87
2022/09/28 15:58:37;541480.00;1.80;933.27;0.00;0.00;0.62;;;;;17.90;1.00;;;;;;2292967;60;1986;-85
2022/09/28 16:01:36;600920.00;2.00;1035.81;0.00;0.00;0.62;;;;;17.20;1.00;;;;;;2292858;60;1499;-86
2022/09/28 16:04:38;955762.00;3.19;1654.27;0.00;0.00;0.62;;;;;16.80;1.00;;;;;;2276038;61;1623;-87
2022/09/28 16:07:22;776217.00;2.59;1339.68;54779.00;0.18;95.45;;;;;16.50;1.00;;;;;;2270090;61;1599;-87
2022/09/28 16:10:32;671357.00;2.24;1157.60;55530.00;0.19;96.75;;;;;16.20;1.00;;;;;;2276214;61;1157;-87
2022/09/28 16:13:16;778286.00;2.59;1343.28;29368.00;0.10;51.49;;;;;15.90;1.00;;;;;;2276120;61;1644;-86
2022/09/28 16:15:44;689550.00;2.30;1189.12;0.00;0.00;0.62;;;;;15.60;1.00;;;;;;2276110;61;1505;-86
2022/09/28 16:18:22;833676.00;2.78;1439.92;75246.00;0.25;130.82;;;;;15.60;1.00;;;;;;2276156;61;1994;-86
2022/09/28 16:20:53;128929360.00;429.76;86835736.00;0.00;0.00;0.62;;;;;15.80;1.00;;;;;;2276134;61;1292;-86
2022/09/28 16:23:27;792477.00;2.64;1368.01;15478.00;0.05;27.44;;;;;16.20;1.00;;;;;;2275918;61;1376;-86
2022/09/28 16:25:59;1066388.00;3.55;1850.42;263765.00;0.88;455.62;;;;;16.60;1.00;;;;;;2276067;61;1147;-87
2022/09/28 16:28:50;1103401.00;3.68;1916.51;96885.00;0.32;168.19;;;;;16.50;1.00;;;;;;2276087;61;928;-87
2022/09/28 16:31:32;763151.00;2.54;1316.93;64548.00;0.22;112.34;;;;;16.20;1.00;;;;;;2276133;61;1044;-87
2022/09/28 16:34:07;1161521.00;3.87;2020.80;152095.00;0.51;263.42;;;;;16.20;1.00;;;;;;2275947;61;1420;-87
2022/09/28 16:36:44;779678.00;2.60;1345.70;33696.00;0.11;58.98;;;;;16.20;1.00;;;;;;2276015;61;876;-87
2022/09/28 16:42:01;671820.00;2.24;1158.40;0.00;0.00;0.62;;;;;16.20;1.00;;;;;;2292833;60;1697;-88
2022/09/28 16:44:33;542469.00;1.81;934.98;0.00;0.00;0.62;;;;;16.30;1.00;;;;;;2292786;60;1646;-86
2022/09/28 16:47:00;424584.00;1.42;732.07;0.00;0.00;0.62;;;;;16.40;1.00;;;;;;2292847;60;1571;-87
2022/09/28 16:49:30;835569.00;2.79;1443.23;16227.00;0.05;28.74;;;;;16.40;1.00;;;;;;2292851;60;1062;-87
2022/09/28 16:51:59;604478.00;2.01;1041.95;0.00;0.00;0.62;;;;;16.20;1.00;;;;;;2292747;60;2229;-86
2022/09/28 16:57:20;570861.00;1.90;983.93;24202.00;0.08;42.55;;;;;16.00;1.00;;;;;;2292877;60;592;-86
2022/09/28 16:59:52;577773.00;1.93;995.86;0.00;0.00;0.62;;;;;16.00;1.00;;;;;;2292829;60;1988;-87
2022/09/28 17:02:25;669679.00;2.23;1154.70;100731.00;0.34;174.83;;;;;16.10;1.00;;;;;;2292807;60;1392;-87
2022/09/28 17:04:56;428198.00;1.43;738.29;0.00;0.00;0.62;;;;;16.00;1.00;;;;;;2292808;60;1555;-86
2022/09/28 17:07:24;530884.00;1.77;915.01;0.00;0.00;0.62;;;;;16.20;1.00;;;;;;2292780;60;933;-86
2022/09/28 17:09:51;546153.00;1.82;941.33;71740.00;0.24;124.77;;;;;16.20;1.00;;;;;;2292766;60;1492;-88
2022/09/28 17:12:23;673751.00;2.25;1161.75;87366.00;0.29;151.76;;;;;16.30;1.00;;;;;;2292777;60;1423;-87
2022/09/28 17:14:51;657959.00;2.19;1134.41;0.00;0.00;0.62;;;;;16.40;1.00;;;;;;2292750;60;2259;-86
2022/09/28 17:17:18;639214.00;2.13;1101.98;36954.00;0.12;64.62;;;;;16.40;1.00;;;;;;2292731;60;1996;-86
2022/09/28 17:19:45;431127.00;1.44;743.32;0.00;0.00;0.62;;;;;16.50;1.00;;;;;;2292760;60;1915;-85
2022/09/28 17:22:13;647876.00;2.16;1116.96;0.00;0.00;0.62;;;;;16.80;1.00;;;;;;2292779;60;1453;-86
2022/09/28 17:24:40;695103.00;2.32;1198.75;0.00;0.00;0.62;;;;;17.00;1.00;;;;;;2292705;60;1101;-87
2022/09/28 17:27:11;877529.00;2.93;1516.69;0.00;0.00;0.62;;;;;17.10;1.00;;;;;;2292795;60;1017;-85
2022/09/28 17:29:38;584142.00;1.95;1006.85;0.00;0.00;0.62;;;;;17.10;1.00;;;;;;2292744;60;1033;-85
2022/09/28 17:32:18;580080.00;1.93;999.84;37332.00;0.12;65.27;;;;;17.00;1.00;;;;;;2292621;60;1757;-86
2022/09/28 17:34:46;856871.00;2.86;1480.49;66430.00;0.22;115.59;;;;;16.40;1.00;;;;;;2292555;60;1141;-85
2022/09/28 17:37:17;748078.00;2.49;1290.72;0.00;0.00;0.62;;;;;16.20;1.00;;;;;;2292709;60;1207;-86
2022/09/28 17:39:44;560683.00;1.87;966.38;59658.00;0.20;103.89;;;;;16.50;1.00;;;;;;2292685;60;1923;-85
2022/09/28 17:42:11;723954.00;2.41;1248.80;0.00;0.00;0.62;;;;;16.60;1.00;;;;;;2292653;60;1433;-86
2022/09/28 17:44:38;639374.00;2.13;1102.26;0.00;0.00;0.62;;;;;16.60;1.00;;;;;;2292729;60;918;-85
2022/09/28 17:47:11;827954.00;2.76;1429.92;0.00;0.00;0.62;;;;;16.60;1.00;;;;;;2292593;60;1589;-86
2022/09/28 17:49:41;652692.00;2.18;1125.29;36457.00;0.12;63.76;;;;;16.70;1.00;;;;;;2292582;60;1126;-86
2022/09/28 17:52:11;656718.00;2.19;1132.26;0.00;0.00;0.62;;;;;16.90;1.00;;;;;;2292590;60;1621;-86
2022/09/28 17:54:38;662485.00;2.21;1142.24;0.00;0.00;0.62;;;;;17.10;1.00;;;;;;2292676;60;1046;-85
2022/09/28 17:57:05;567810.00;1.89;978.67;0.00;0.00;0.62;;;;;17.00;1.00;;;;;;2292670;60;1422;-87
2022/09/28 17:59:32;662149.00;2.21;1141.66;0.00;0.00;0.62;;;;;16.70;1.00;;;;;;2292653;60;1916;-86
2022/09/28 18:01:59;468582.00;1.56;807.75;0.00;0.00;0.62;;;;;16.40;1.00;;;;;;2292690;60;1073;-86
2022/09/28 18:04:27;615696.00;2.05;1061.33;0.00;0.00;0.62;;;;;16.10;1.00;;;;;;2292689;60;1432;-86
2022/09/28 18:06:54;721936.00;2.41;1245.30;0.00;0.00;0.62;;;;;16.00;1.00;;;;;;2292629;60;894;-87
2022/09/28 18:09:23;441200.00;1.47;760.65;0.00;0.00;0.62;;;;;16.00;1.00;;;;;;2292667;60;1013;-87
2022/09/28 18:11:57;522881.00;1.74;901.23;0.00;0.00;0.62;;;;;15.90;1.00;;;;;;2292644;60;1065;-85
2022/09/28 18:14:24;625929.00;2.09;1079.01;0.00;0.00;0.62;;;;;15.90;1.00;;;;;;2292556;60;1740;-85
2022/09/28 18:16:51;548576.00;1.83;945.50;46519.00;0.16;81.17;;;;;15.80;1.00;;;;;;2292588;60;1093;-85
2022/09/28 18:19:18;571022.00;1.90;984.21;0.00;0.00;0.62;;;;;15.80;1.00;;;;;;2292586;60;1919;-86
2022/09/28 18:21:47;516859.00;1.72;890.85;15690.00;0.05;27.81;;;;;16.20;1.00;;;;;;2292616;60;1075;-84
2022/09/28 18:24:14;615795.00;2.05;1061.50;0.00;0.00;0.62;;;;;16.20;1.00;;;;;;2292500;60;1265;-87
2022/09/28 18:26:41;470868.00;1.57;811.68;0.00;0.00;0.62;;;;;16.30;1.00;;;;;;2292566;60;1113;-86
2022/09/28 18:29:07;515362.00;1.72;888.28;0.00;0.00;0.62;;;;;16.30;1.00;;;;;;2292535;60;1060;-85
2022/09/28 18:31:35;574572.00;1.92;990.33;0.00;0.00;0.62;;;;;16.20;1.00;;;;;;2292443;60;1641;-86
2022/09/28 18:34:01;602517.00;2.01;1038.57;0.00;0.00;0.62;;;;;16.30;1.00;;;;;;2292527;60;1381;-86
2022/09/28 18:36:29;477836.00;1.59;823.67;0.00;0.00;0.62;;;;;16.30;1.00;;;;;;2292448;60;950;-85
2022/09/28 18:38:57;690113.00;2.30;1190.10;0.00;0.00;0.62;;;;;16.00;1.00;;;;;;2292478;60;2004;-85
2022/09/28 18:41:24;469473.00;1.56;809.28;0.00;0.00;0.62;;;;;15.80;1.00;;;;;;2292578;60;1080;-86
2022/09/28 18:43:51;636120.00;2.12;1096.63;0.00;0.00;0.62;;;;;16.00;1.00;;;;;;2292421;60;1397;-86
2022/09/28 18:46:18;542312.00;1.81;934.71;0.00;0.00;0.62;;;;;16.00;1.00;;;;;;2292978;60;1083;-85
2022/09/28 18:48:46;328416.00;1.09;566.76;0.00;0.00;0.62;;;;;16.20;1.00;;;;;;2293201;60;1114;-86
2022/09/28 18:51:13;705037.00;2.35;1215.97;33826.00;0.11;59.20;;;;;15.90;1.00;;;;;;2293087;60;1117;-86
2022/09/28 18:53:40;547213.00;1.82;943.16;0.00;0.00;0.62;;;;;15.90;1.00;;;;;;2293225;60;1369;-85
2022/09/28 18:56:11;455086.00;1.52;784.53;0.00;0.00;0.62;;;;;16.00;1.00;;;;;;2293185;60;1111;-86
2022/09/28 18:58:42;480692.00;1.60;828.59;0.00;0.00;0.62;;;;;16.20;1.00;;;;;;2293142;60;1992;-87
2022/09/28 19:01:11;462905.00;1.54;797.98;0.00;0.00;0.62;;;;;16.30;1.00;;;;;;2293073;60;1084;-87
2022/09/28 19:03:38;514299.00;1.71;886.45;0.00;0.00;0.62;;;;;16.60;1.00;;;;;;2293104;60;1526;-86
2022/09/28 19:06:09;117567864.00;391.89;65825800.00;0.00;0.00;0.62;;;;;16.90;1.00;;;;;;2293218;60;1017;-86
2022/09/28 19:08:36;805052.00;2.68;1389.94;0.00;0.00;0.62;;;;;17.20;1.00;;;;;;2292997;60;1277;-86
2022/09/28 19:11:06;929509.00;3.10;1608.01;15786.00;0.05;27.97;;;;;17.40;1.00;;;;;;2292958;60;1113;-85
2022/09/28 19:13:34;412903.00;1.38;711.99;0.00;0.00;0.62;;;;;17.60;1.00;;;;;;2293121;60;1397;-86
2022/09/28 19:16:07;743632.00;2.48;1282.99;0.00;0.00;0.62;;;;;17.70;1.00;;;;;;2293094;60;1118;-85
2022/09/28 19:18:34;557224.00;1.86;960.41;0.00;0.00;0.62;;;;;17.70;1.00;;;;;;2293083;60;1044;-85
2022/09/28 19:21:04;559908.00;1.87;965.04;0.00;0.00;0.62;;;;;17.70;1.00;;;;;;2292932;60;2021;-87
2022/09/28 19:23:30;482049.00;1.61;830.92;0.00;0.00;0.62;;;;;17.60;1.00;;;;;;2292987;60;1355;-85
2022/09/28 19:26:00;546762.00;1.82;942.38;0.00;0.00;0.62;;;;;17.60;1.00;;;;;;2293040;60;1109;-86
2022/09/28 19:28:27;658109.00;2.19;1134.67;0.00;0.00;0.62;;;;;17.40;1.00;;;;;;2293015;60;1099;-86
2022/09/28 19:31:00;421787.00;1.41;727.26;0.00;0.00;0.62;;;;;17.50;1.00;;;;;;2293161;60;1141;-84
2022/09/28 19:33:27;767606.00;2.56;1324.69;0.00;0.00;0.62;;;;;17.60;1.00;;;;;;2293100;60;1250;-85
2022/09/28 19:35:56;749906.00;2.50;1293.89;0.00;0.00;0.62;;;;;17.60;1.00;;;;;;2293075;60;1087;-85
2022/09/28 19:38:23;673694.00;2.25;1161.65;41070.00;0.14;71.74;;;;;17.50;1.00;;;;;;2292976;60;1623;-84
2022/09/28 19:40:50;864407.00;2.88;1493.69;0.00;0.00;0.62;;;;;17.30;1.00;;;;;;2292950;60;2199;-85
2022/09/28 19:43:20;896890.00;2.99;1550.66;0.00;0.00;0.62;;;;;17.20;1.00;;;;;;2292936;60;1388;-87